メインページ
METAR-TAF:

METAR-TAF

空港 :

カフルイ空港

カフルイ, ハワイ州, アメリカ合衆国

緯度: 20-53-33N, 経度: 156-26-13W, 海抜: 16m

現時点の気象観測

当レポートは37分前の20:54(UTC)に作成
北東の風 20kt、最大25ktの突風を伴う
気温 27°C
湿度 62%
気圧 1021 hPa
視程: 16.1km
高度4000ftの雲は散在している

METAR: PHOG 152054Z 04020G25KT 10SM SCT040 27/19 A3014 RMK AO2 SLP210 T02720194 50001 $

時間: 11:31 (21:31 UTC)

予報

当レポートは3時間49分前の17:42(UTC)に作成
予報は15日の 18時(UTC)から 16日の 18時(UTC)まで有効
北東の風 10kt
視程: 10km
高度2500ftの雲はほとんどない
高度5000ftの雲は散在している
15日の 2000時(UTC)から
北東の風 18kt、最大28ktの突風を伴う
視程: 10km
高度3000ftの雲はほとんどない
高度5000ftの雲は散在している
16日の 0500時(UTC)から
北東の風 12kt
視程: 10km
高度2500ftの雲はほとんどない
高度5000ftの雲は散在している
16日の 1000時(UTC)から
南東の風 5kt
視程: 10km
高度2500ftの雲はほとんどない

TAF: PHOG 151742Z 1518/1618 04010KT P6SM FEW025 SCT050 FM152000 05018G28KT P6SM FEW030 SCT050 FM160500 05012KT P6SM FEW025 SCT050 FM161000 14005KT P6SM FEW025 AMD LTD TO VIS AND WIND 1609/1616

4,000以上の空港の気象観測と天気予報(METAR報とTAF報)

利用可能な観測所は地図上に黄色い丸と赤い丸で示す。

丸の上にカーソルを重ねると観測所名を参照できる。

次にクリックすると気象観測と天気予報を参照できる。

マップの切り替え:黒色「×」印の緑ボタンをクリックして拡大、「-」印の緑ボタンをクリックして縮小、緑色の三角印をクリックして隣りの地図に切り替え


METAR-TAF: